Tuesday, January 22, 2019, 3:58 PM EST
Back to Local

KWWD, Wildwood, Cape May County Airport

Location: Villas, NJ, United States Lat: 39.017
Local Time: 3:58 PM EST (20:58 GMT) Lon: -74.917
Time Zone: US/Eastern Elev: 22 ft

Show me the last for .
Show Decoded

2019-01-22 14:55 METAR KWWD 221955Z AUTO 27007KT 10SM CLR M02/M10 A3066 RMK AO2 SLP384 T10221100
                 FZRANO =
2019-01-22 13:55 METAR KWWD 221855Z AUTO 30007KT 10SM CLR M03/M11 A3067 RMK AO2 SLP389 T10281111
                 FZRANO =
2019-01-22 12:55 METAR KWWD 221755Z AUTO 29007KT 10SM CLR M03/M13 A3068 RMK AO2 SLP391 T10331128
                 11033 21089 58012 FZRANO =
2019-01-22 11:55 METAR KWWD 221655Z AUTO 29011KT 10SM CLR M04/M12 A3070 RMK AO2 SLP400 T10441122
                 FZRANO =
2019-01-22 10:55 METAR KWWD 221555Z AUTO 32008KT 10SM CLR M06/M14 A3073 RMK AO2 SLP409 T10561139
                 FZRANO =
2019-01-22 09:55 METAR KWWD 221455Z AUTO 32009KT 10SM CLR M07/M14 A3071 RMK AO2 SLP403 T10671139
                 51019 FZRANO =
2019-01-22 08:55 METAR KWWD 221355Z AUTO 32012G18KT 10SM CLR M08/M14 A3070 RMK AO2 SLP399
                 T10781144 FZRANO =
2019-01-22 07:55 METAR KWWD 221255Z AUTO 32010G14KT 10SM CLR M08/M14 A3069 RMK AO2 SLP394
                 T10831144 FZRANO =
2019-01-22 06:55 METAR KWWD 221155Z AUTO 33009G14KT 10SM CLR M09/M15 A3066 RMK AO2 SLP385
                 T10891150 11078 21089 53018 FZRANO =
2019-01-22 05:55 METAR KWWD 221055Z AUTO 33011G19KT 10SM CLR M09/M15 A3064 RMK AO2 SLP379
                 T10891150 FZRANO =
2019-01-22 04:55 METAR KWWD 220955Z AUTO 33012G19KT 10SM CLR M08/M14 A3062 RMK AO2 SLP371
                 T10831139 FZRANO =
2019-01-22 03:55 METAR KWWD 220855Z AUTO 32012G20KT 10SM CLR M08/M16 A3061 RMK AO2 SLP367
                 T10781156 51023 FZRANO =
2019-01-22 02:55 METAR KWWD 220755Z AUTO 32008G17KT 10SM CLR M08/M17 A3059 RMK AO2 SLP362
                 T10831167 FZRANO =
2019-01-22 01:55 METAR KWWD 220655Z AUTO 31010G18KT 10SM CLR M08/M18 A3057 RMK AO2 SLP354
                 T10831178 FZRANO =
2019-01-22 00:55 METAR KWWD 220555Z AUTO 32009G17KT 300V360 10SM CLR M08/M17 A3054 RMK AO2 SLP343
                 T10831172 11072 21083 51020 FZRANO =
2019-01-21 23:55 METAR KWWD 220455Z AUTO 32014G22KT 10SM CLR M08/M17 A3053 RMK AO2 PK WND
                 30027/0437 SLP340 T10781172 410611100 FZRANO =
2019-01-21 22:55 METAR KWWD 220355Z AUTO 32013G27KT 280V340 10SM CLR M07/M17 A3051 RMK AO2 PK WND
                 32029/0337 SLP333 T10721167 FZRANO =
2019-01-21 21:55 METAR KWWD 220255Z AUTO 32015G28KT 10SM CLR M07/M17 A3048 RMK AO2 PK WND
                 34028/0253 SLP323 T10721172 51029 FZRANO =
2019-01-21 20:55 METAR KWWD 220155Z AUTO 32011G23KT 10SM FEW045 M07/M16 A3046 RMK AO2 PK WND
                 30027/0139 SLP317 T10721161 FZRANO =
2019-01-21 19:55 METAR KWWD 220055Z AUTO 31014G22KT 10SM CLR M07/M17 A3042 RMK AO2 PK WND
                 28026/0044 SLP304 T10721167 FZRANO =
2019-01-21 18:55 METAR KWWD 212355Z AUTO 31013G24KT 10SM CLR M07/M17 A3039 RMK AO2 PK WND
                 32028/2307 SLP294 T10721167 11067 21078 51036 FZRANO =
2019-01-21 17:55 METAR KWWD 212255Z AUTO 31016G23KT 10SM FEW048 M07/M18 A3036 RMK AO2 PK WND
                 31029/2200 SLP283 T10721178 FZRANO =
2019-01-21 16:55 METAR KWWD 212155Z AUTO 30014G23KT 10SM FEW050 M07/M17 A3032 RMK AO2 PK WND
                 28030/2109 SLP271 T10721172 FZRANO =

Support USWX by starting your Amazon purchase here.